Time;durP1;ratioP1;P1;durP2;ratioP2;P2;SDS_P1;SDS_P2;PMS_P1;PMS_P2;Temp;Humidity;BMP_temperature;BMP_pressure;BME280_temperature;BME280_humidity;BME280_pressure;Samples;Min_cycle;Max_cycle;Signal;HPM_P1;HPM_P2
2020/12/02 00:01:22;;;;;;;29.45;16.55;;;3.00;99.90;;;;;;5075479;28;20288;-88
2020/12/02 00:03:57;;;;;;;19.80;11.80;;;3.10;99.90;;;;;;5076302;28;20209;-87
2020/12/02 00:06:25;;;;;;;24.10;12.43;;;3.10;99.90;;;;;;5075427;28;20284;-87
2020/12/02 00:08:57;;;;;;;30.52;13.77;;;3.10;99.90;;;;;;5075912;28;20237;-88
2020/12/02 00:11:25;;;;;;;24.17;14.13;;;3.10;99.90;;;;;;5076427;28;20271;-87
2020/12/02 00:13:52;;;;;;;30.63;16.48;;;3.00;99.90;;;;;;5076017;28;20743;-88
2020/12/02 00:16:22;;;;;;;25.45;15.13;;;3.00;99.90;;;;;;5075046;28;20293;-90
2020/12/02 00:18:52;;;;;;;25.10;13.95;;;3.00;99.90;;;;;;5076036;28;20611;-88
2020/12/02 00:21:19;;;;;;;24.45;14.35;;;3.00;99.90;;;;;;5075868;28;20288;-88
2020/12/02 00:23:46;;;;;;;30.80;16.48;;;3.00;99.90;;;;;;5075952;28;20228;-88
2020/12/02 00:26:15;;;;;;;28.17;14.85;;;3.00;99.90;;;;;;5076228;28;20201;-88
2020/12/02 00:28:43;;;;;;;30.45;14.93;;;3.00;99.90;;;;;;5075693;28;20230;-87
2020/12/02 00:31:10;;;;;;;27.25;12.88;;;3.10;99.90;;;;;;5074602;28;20205;-87
2020/12/02 00:33:36;;;;;;;26.42;12.77;;;3.10;99.90;;;;;;5075153;28;20587;-89
2020/12/02 00:36:03;;;;;;;19.05;12.75;;;3.10;99.90;;;;;;5075821;28;20301;-89
2020/12/02 00:38:30;;;;;;;31.08;14.13;;;3.10;99.90;;;;;;5076740;28;20223;-88
2020/12/02 00:40:56;;;;;;;21.08;12.80;;;3.00;99.90;;;;;;5074355;28;20331;-90
2020/12/02 00:43:25;;;;;;;21.75;12.27;;;3.00;99.90;;;;;;5075471;28;20288;-88
2020/12/02 00:45:55;;;;;;;21.75;13.73;;;3.00;99.90;;;;;;5073027;28;20571;-89
2020/12/02 00:48:23;;;;;;;24.60;14.00;;;3.00;99.90;;;;;;5074341;28;20659;-89
2020/12/02 00:50:50;;;;;;;24.55;12.85;;;3.00;99.90;;;;;;5075422;28;20259;-90
2020/12/02 00:53:19;;;;;;;24.90;12.73;;;3.00;99.90;;;;;;5074507;28;20646;-88
2020/12/02 00:55:47;;;;;;;21.73;13.80;;;2.90;99.90;;;;;;5075303;28;20292;-87
2020/12/02 00:58:27;;;;;;;21.58;12.77;;;2.70;99.90;;;;;;5074187;28;20297;-87
2020/12/02 01:00:57;;;;;;;16.33;10.45;;;2.70;99.90;;;;;;5073761;28;20288;-86
2020/12/02 01:03:27;;;;;;;23.65;12.95;;;2.80;99.90;;;;;;5074911;28;20201;-86
2020/12/02 01:05:57;;;;;;;15.55;10.60;;;2.80;99.90;;;;;;5077326;28;20270;-85
2020/12/02 01:08:26;;;;;;;22.60;13.50;;;2.80;99.90;;;;;;5094170;28;20233;-86
2020/12/02 01:10:59;;;;;;;23.00;12.63;;;2.80;99.90;;;;;;5099215;28;20196;-86
2020/12/02 01:13:26;;;;;;;19.65;11.13;;;2.80;99.90;;;;;;5079929;28;20210;-85
2020/12/02 01:15:52;;;;;;;24.60;11.73;;;2.80;99.90;;;;;;5074583;28;20620;-85
2020/12/02 01:18:23;;;;;;;13.88;10.15;;;2.80;99.90;;;;;;5071089;28;20198;-87
2020/12/02 01:20:59;;;;;;;15.85;11.38;;;2.90;99.90;;;;;;5074873;28;20204;-87
2020/12/02 01:23:25;;;;;;;21.92;11.23;;;3.00;99.90;;;;;;5074656;28;20662;-85
2020/12/02 01:25:52;;;;;;;17.33;9.93;;;3.00;99.90;;;;;;5074707;28;20732;-86
2020/12/02 01:28:27;;;;;;;17.83;11.85;;;3.00;99.90;;;;;;5074564;28;20233;-88
2020/12/02 01:30:55;;;;;;;15.00;10.18;;;3.00;99.90;;;;;;5070407;28;20216;-88
2020/12/02 01:33:23;;;;;;;16.10;10.02;;;3.00;99.90;;;;;;5074895;28;20296;-88
2020/12/02 01:35:51;;;;;;;19.13;12.27;;;3.00;99.90;;;;;;5073441;28;20296;-87
2020/12/02 01:38:22;;;;;;;17.35;10.32;;;3.00;99.90;;;;;;5074449;28;20206;-86
2020/12/02 01:40:48;;;;;;;16.48;11.18;;;3.00;99.90;;;;;;5074526;28;20268;-87
2020/12/02 01:43:15;;;;;;;15.35;9.95;;;3.00;99.90;;;;;;5074522;28;20292;-87
2020/12/02 01:45:43;;;;;;;17.00;9.52;;;3.00;99.90;;;;;;5073046;28;20689;-87
2020/12/02 01:48:24;;;;;;;16.58;11.30;;;3.00;99.90;;;;;;5074210;28;20323;-88
2020/12/02 01:50:59;;;;;;;14.40;9.63;;;3.00;99.90;;;;;;5074029;28;20227;-86
2020/12/02 01:53:32;;;;;;;13.45;9.35;;;3.00;99.90;;;;;;5074240;28;20671;-87
2020/12/02 01:56:01;;;;;;;12.70;8.50;;;3.00;99.90;;;;;;5073971;28;20201;-87
2020/12/02 01:58:34;;;;;;;16.90;8.77;;;2.90;99.90;;;;;;5074036;28;20292;-87
2020/12/02 02:01:08;;;;;;;18.40;10.07;;;3.00;99.90;;;;;;5071285;28;20212;-87
2020/12/02 02:03:37;;;;;;;14.68;9.70;;;3.00;99.90;;;;;;5073924;28;20563;-87
2020/12/02 02:06:14;;;;;;;12.10;9.80;;;2.90;99.90;;;;;;5073662;28;20292;-87
2020/12/02 02:08:42;;;;;;;22.50;12.50;;;2.90;99.90;;;;;;5073662;28;20268;-86
2020/12/02 02:11:11;;;;;;;18.58;11.57;;;2.90;99.90;;;;;;5073427;28;20288;-87
2020/12/02 02:14:19;;;;;;;19.50;12.73;;;2.90;99.90;;;;;;5073550;28;20202;-86
2020/12/02 02:16:47;;;;;;;23.00;15.13;;;2.90;99.90;;;;;;5043770;28;20292;-87
2020/12/02 02:19:19;;;;;;;19.60;12.57;;;2.90;99.90;;;;;;5073455;28;20679;-88
2020/12/02 02:21:48;;;;;;;25.80;15.73;;;2.90;99.90;;;;;;5073683;28;20220;-87
2020/12/02 02:24:15;;;;;;;28.33;15.07;;;2.90;99.90;;;;;;5073326;28;20216;-86
2020/12/02 02:26:46;;;;;;;23.65;15.23;;;2.90;99.90;;;;;;5073448;28;20243;-87
2020/12/02 02:29:17;;;;;;;28.88;16.15;;;2.90;99.90;;;;;;5073191;28;20240;-87
2020/12/02 02:31:49;;;;;;;28.52;14.02;;;3.00;99.90;;;;;;5072415;28;20564;-87
2020/12/02 02:34:15;;;;;;;24.17;15.57;;;2.90;99.90;;;;;;5072948;28;20201;-87
2020/12/02 02:36:42;;;;;;;21.73;12.27;;;2.90;99.90;;;;;;5073246;28;20205;-88
2020/12/02 02:39:11;;;;;;;23.08;14.27;;;2.90;99.90;;;;;;5072881;28;20212;-88
2020/12/02 02:41:37;;;;;;;14.27;9.70;;;2.90;99.90;;;;;;5071820;28;20233;-87
2020/12/02 02:44:05;;;;;;;17.13;9.38;;;2.90;99.90;;;;;;5072960;28;20205;-87
2020/12/02 02:46:31;;;;;;;15.68;11.82;;;2.90;99.90;;;;;;5071567;28;20212;-87
2020/12/02 02:48:58;;;;;;;21.00;13.48;;;2.90;99.90;;;;;;5071778;28;20260;-86
2020/12/02 02:51:25;;;;;;;18.33;9.60;;;2.90;99.90;;;;;;5072985;28;20209;-87
2020/12/02 02:53:51;;;;;;;16.15;11.13;;;2.90;99.90;;;;;;5073094;28;20201;-86
2020/12/02 02:56:17;;;;;;;20.55;12.95;;;2.90;99.90;;;;;;5073038;28;20216;-86
2020/12/02 02:58:44;;;;;;;22.23;12.00;;;2.90;99.90;;;;;;5071785;28;20212;-86
2020/12/02 03:01:11;;;;;;;23.27;12.30;;;2.90;99.90;;;;;;5071641;28;20201;-87
2020/12/02 03:03:38;;;;;;;21.23;12.13;;;2.90;99.90;;;;;;5072805;28;20292;-87
2020/12/02 03:06:06;;;;;;;21.13;11.98;;;3.00;99.90;;;;;;5072906;28;20233;-87
2020/12/02 03:08:33;;;;;;;22.48;13.45;;;2.90;99.90;;;;;;5072892;28;20596;-87
2020/12/02 03:11:02;;;;;;;19.08;11.73;;;2.90;99.90;;;;;;5072227;28;20735;-88
2020/12/02 03:13:35;;;;;;;16.58;10.00;;;2.90;99.90;;;;;;5071762;28;20213;-87
2020/12/02 03:16:07;;;;;;;18.13;11.07;;;2.90;99.90;;;;;;5071519;28;20295;-87
2020/12/02 03:18:34;;;;;;;18.77;11.13;;;2.90;99.90;;;;;;5072689;28;20205;-87
2020/12/02 03:21:06;;;;;;;21.67;12.43;;;2.90;99.90;;;;;;5072864;28;20293;-86
2020/12/02 03:23:33;;;;;;;18.20;9.65;;;2.90;99.90;;;;;;5072721;28;20201;-86
2020/12/02 03:26:00;;;;;;;16.52;9.43;;;2.90;99.90;;;;;;5072773;28;20292;-86
2020/12/02 03:28:28;;;;;;;14.93;9.85;;;3.00;99.90;;;;;;5072223;28;20730;-86
2020/12/02 03:30:57;;;;;;;19.52;11.98;;;2.90;99.90;;;;;;5071445;28;20197;-86
2020/12/02 03:33:24;;;;;;;19.83;12.05;;;2.90;99.90;;;;;;5072818;28;20774;-86
2020/12/02 03:35:52;;;;;;;20.50;13.02;;;3.00;99.90;;;;;;5072723;28;20208;-86
2020/12/02 03:38:18;;;;;;;16.48;11.35;;;2.80;99.90;;;;;;5072519;28;20723;-86
2020/12/02 03:40:44;;;;;;;19.15;10.63;;;2.80;99.90;;;;;;5071256;28;20237;-86
2020/12/02 03:43:11;;;;;;;21.58;10.60;;;2.90;99.90;;;;;;5072648;28;20295;-87
2020/12/02 03:45:42;;;;;;;15.82;9.85;;;2.90;99.90;;;;;;5071348;28;20292;-87
2020/12/02 03:48:09;;;;;;;18.67;11.35;;;2.90;99.90;;;;;;5071071;28;20239;-86
2020/12/02 03:50:36;;;;;;;21.13;11.40;;;2.90;99.90;;;;;;5072660;28;20201;-86
2020/12/02 03:53:03;;;;;;;17.30;10.38;;;2.90;99.90;;;;;;5072505;28;20748;-87
2020/12/02 03:55:30;;;;;;;18.67;12.45;;;2.90;99.90;;;;;;5072373;28;20297;-88
2020/12/02 03:57:56;;;;;;;13.43;9.68;;;2.90;99.90;;;;;;5071567;28;20676;-86
2020/12/02 04:00:22;;;;;;;24.00;10.88;;;2.90;99.90;;;;;;5071308;28;20558;-87
2020/12/02 04:02:49;;;;;;;20.90;10.77;;;2.90;99.90;;;;;;5071319;28;20759;-86
2020/12/02 04:05:34;;;;;;;20.23;11.60;;;2.90;99.90;;;;;;5072517;28;20675;-86
2020/12/02 04:08:00;;;;;;;16.00;10.55;;;2.90;99.90;;;;;;5071365;28;20260;-86
2020/12/02 04:10:29;;;;;;;18.15;11.10;;;2.90;99.90;;;;;;5072019;28;20297;-86
2020/12/02 04:12:56;;;;;;;21.77;15.00;;;3.00;99.90;;;;;;5071954;28;20259;-86
2020/12/02 04:15:23;;;;;;;17.52;9.82;;;3.20;99.90;;;;;;5070307;28;20653;-86
2020/12/02 04:17:50;;;;;;;20.65;10.90;;;3.10;99.90;;;;;;5071794;28;20208;-86
2020/12/02 04:20:18;;;;;;;18.42;10.82;;;3.00;99.90;;;;;;5071621;28;20296;-85
2020/12/02 04:22:45;;;;;;;14.82;10.00;;;3.00;99.90;;;;;;5072585;28;20292;-84
2020/12/02 04:25:11;;;;;;;19.65;10.23;;;3.00;99.90;;;;;;5075882;28;20292;-85
2020/12/02 04:27:39;;;;;;;15.85;10.20;;;3.00;99.90;;;;;;5075828;28;20288;-85
2020/12/02 04:30:06;;;;;;;14.65;9.25;;;3.00;99.90;;;;;;5075582;28;20296;-85
2020/12/02 04:32:33;;;;;;;13.73;9.48;;;3.00;99.90;;;;;;5078217;28;20240;-85
2020/12/02 04:35:02;;;;;;;17.73;10.15;;;3.00;99.90;;;;;;5096128;28;20205;-85
2020/12/02 04:37:29;;;;;;;16.55;9.75;;;3.00;99.90;;;;;;5097320;28;20204;-86
2020/12/02 04:39:56;;;;;;;16.17;10.93;;;3.00;99.90;;;;;;5097651;28;20201;-85
2020/12/02 04:42:27;;;;;;;16.35;11.98;;;3.00;99.90;;;;;;5076135;28;20272;-84
2020/12/02 04:44:56;;;;;;;19.40;10.95;;;3.00;99.90;;;;;;5052445;28;20624;-85
2020/12/02 04:47:31;;;;;;;18.30;12.20;;;3.00;99.90;;;;;;5055692;28;20241;-85
2020/12/02 04:49:58;;;;;;;15.30;10.02;;;3.00;99.90;;;;;;5055509;28;20642;-85
2020/12/02 04:52:25;;;;;;;12.82;9.82;;;3.10;99.90;;;;;;5055295;28;20242;-84
2020/12/02 04:54:51;;;;;;;16.83;10.45;;;3.10;99.90;;;;;;5055270;28;20206;-84
2020/12/02 04:57:18;;;;;;;20.63;13.63;;;3.10;99.90;;;;;;5054921;28;20712;-84
2020/12/02 04:59:45;;;;;;;17.05;13.07;;;3.00;99.90;;;;;;5054313;28;20340;-84
2020/12/02 05:02:24;;;;;;;17.05;11.95;;;3.10;99.90;;;;;;5055037;28;20626;-85
2020/12/02 05:04:55;;;;;;;19.45;10.88;;;3.00;99.90;;;;;;5071967;28;20297;-85
2020/12/02 05:07:25;;;;;;;17.80;8.85;;;3.00;99.90;;;;;;5074974;28;20209;-85
2020/12/02 05:09:57;;;;;;;16.80;10.65;;;3.00;99.90;;;;;;5074997;28;20316;-84
2020/12/02 05:12:25;;;;;;;15.57;9.48;;;3.10;99.90;;;;;;5074280;28;20605;-86
2020/12/02 05:14:52;;;;;;;13.82;9.40;;;3.10;99.90;;;;;;5073398;28;20255;-85
2020/12/02 05:17:23;;;;;;;15.88;9.25;;;3.10;99.90;;;;;;5074545;28;20197;-85
2020/12/02 05:20:08;;;;;;;14.75;10.00;;;3.10;99.90;;;;;;5074033;28;20300;-86
2020/12/02 05:22:36;;;;;;;15.55;8.50;;;3.10;99.90;;;;;;5074780;28;20336;-85
2020/12/02 05:25:06;;;;;;;11.20;7.72;;;3.10;99.90;;;;;;5074532;28;20237;-85
2020/12/02 05:27:35;;;;;;;18.63;9.23;;;3.20;99.90;;;;;;5074392;28;20209;-85
2020/12/02 05:30:19;;;;;;;16.08;7.82;;;3.10;99.90;;;;;;5073433;28;20632;-85
2020/12/02 05:33:05;;;;;;;11.95;9.18;;;3.30;99.90;;;;;;5074199;28;20237;-85
2020/12/02 05:35:33;;;;;;;16.38;9.18;;;3.10;99.90;;;;;;5073937;28;20205;-85
2020/12/02 05:38:00;;;;;;;12.50;9.68;;;3.10;99.90;;;;;;5074413;28;20259;-85
2020/12/02 05:40:28;;;;;;;14.73;8.93;;;3.10;99.90;;;;;;5074031;28;20245;-85
2020/12/02 05:42:59;;;;;;;14.05;8.82;;;3.10;99.90;;;;;;5073312;28;20234;-85
2020/12/02 05:45:34;;;;;;;21.30;9.50;;;3.00;99.90;;;;;;5073011;28;20247;-86
2020/12/02 05:48:05;;;;;;;16.20;8.75;;;3.10;99.90;;;;;;5073980;28;20224;-86
2020/12/02 05:50:32;;;;;;;18.08;9.25;;;3.10;99.90;;;;;;5074177;28;20202;-86
2020/12/02 05:53:10;;;;;;;15.90;10.13;;;3.20;99.90;;;;;;5074127;28;20657;-86
2020/12/02 05:55:36;;;;;;;13.80;9.15;;;3.30;99.90;;;;;;5073938;28;20739;-86
2020/12/02 05:58:10;;;;;;;15.93;9.27;;;3.20;99.90;;;;;;5005503;28;20289;-86
2020/12/02 06:00:37;;;;;;;17.15;9.90;;;3.20;99.90;;;;;;5072720;28;20255;-85
2020/12/02 06:03:06;;;;;;;14.85;8.80;;;3.10;99.90;;;;;;5073010;28;20263;-85
2020/12/02 06:05:32;;;;;;;13.32;9.30;;;3.20;99.90;;;;;;5084787;28;20221;-85
2020/12/02 06:08:01;;;;;;;14.10;10.00;;;3.10;99.90;;;;;;5095829;28;20244;-84
2020/12/02 06:10:32;;;;;;;15.48;9.95;;;3.10;99.90;;;;;;5095735;28;20189;-85
2020/12/02 06:12:59;;;;;;;11.77;8.52;;;3.10;99.90;;;;;;5074845;28;20241;-85
2020/12/02 06:15:33;;;;;;;13.45;7.60;;;3.10;99.90;;;;;;5072947;28;20292;-85
2020/12/02 06:18:19;;;;;;;15.90;10.15;;;3.10;99.90;;;;;;5073497;28;20201;-85
2020/12/02 06:20:47;;;;;;;12.75;8.95;;;3.20;99.90;;;;;;5072369;28;20193;-84
2020/12/02 06:23:14;;;;;;;14.30;8.68;;;3.10;99.90;;;;;;5073322;28;20209;-84
2020/12/02 06:25:47;;;;;;;14.18;8.60;;;3.10;99.90;;;;;;5073361;28;20296;-84
2020/12/02 06:28:19;;;;;;;14.35;8.35;;;3.10;99.90;;;;;;5073215;28;20316;-86
2020/12/02 06:30:55;;;;;;;13.35;9.07;;;3.00;99.90;;;;;;5072278;28;20288;-84
2020/12/02 06:33:30;;;;;;;20.48;9.68;;;3.00;99.90;;;;;;5073383;28;20241;-84
2020/12/02 06:36:14;;;;;;;19.98;10.70;;;3.10;99.90;;;;;;5072082;28;20752;-85
2020/12/02 06:38:40;;;;;;;16.98;8.45;;;3.10;99.90;;;;;;5073349;28;20229;-84
2020/12/02 06:41:36;;;;;;;15.25;10.45;;;3.20;99.90;;;;;;5073026;28;20272;-86
2020/12/02 06:44:16;;;;;;;18.70;8.95;;;3.20;99.90;;;;;;5072050;28;20225;-86
2020/12/02 06:46:54;;;;;;;17.33;10.40;;;3.20;99.90;;;;;;5071282;28;20288;-86
2020/12/02 06:49:22;;;;;;;16.73;8.52;;;3.20;99.90;;;;;;5073126;28;20248;-86
2020/12/02 06:52:01;;;;;;;16.33;8.77;;;3.30;99.90;;;;;;5073175;28;20237;-85
2020/12/02 06:54:30;;;;;;;17.13;9.88;;;3.20;99.90;;;;;;5072864;28;20283;-86
2020/12/02 06:57:13;;;;;;;14.65;10.10;;;3.20;99.90;;;;;;5073040;28;20240;-86
2020/12/02 06:59:51;;;;;;;17.40;10.65;;;3.20;99.90;;;;;;5070912;28;20237;-87
2020/12/02 07:02:29;;;;;;;13.77;8.95;;;3.20;99.90;;;;;;5072987;28;20201;-86
2020/12/02 07:04:58;;;;;;;21.83;13.80;;;3.20;99.90;;;;;;5071825;28;20201;-86
2020/12/02 07:07:25;;;;;;;21.85;13.60;;;3.10;99.90;;;;;;5072826;28;20284;-84
2020/12/02 07:09:51;;;;;;;15.88;11.95;;;3.10;99.90;;;;;;5072793;28;20225;-86
2020/12/02 07:12:20;;;;;;;18.75;11.57;;;3.10;99.90;;;;;;5071490;28;20245;-86
2020/12/02 07:14:48;;;;;;;24.92;12.02;;;3.10;99.90;;;;;;5071335;28;20244;-85
2020/12/02 07:17:16;;;;;;;24.02;13.13;;;3.00;99.90;;;;;;5072770;28;20201;-85
2020/12/02 07:19:45;;;;;;;33.50;17.58;;;3.00;99.90;;;;;;5071690;28;20716;-86
2020/12/02 07:22:18;;;;;;;39.45;19.77;;;3.00;99.90;;;;;;5072564;28;20202;-85
2020/12/02 07:24:46;;;;;;;17.73;12.43;;;3.00;99.90;;;;;;5072721;28;20284;-86
2020/12/02 07:27:21;;;;;;;19.02;10.63;;;3.00;99.90;;;;;;5072078;28;20288;-85
2020/12/02 07:29:56;;;;;;;17.20;10.10;;;2.90;99.90;;;;;;5071393;28;20224;-86
2020/12/02 07:32:23;;;;;;;25.00;13.23;;;2.90;99.90;;;;;;5072990;28;20288;-85
2020/12/02 07:34:58;;;;;;;16.33;9.77;;;2.90;99.90;;;;;;5072138;28;20291;-86
2020/12/02 07:37:26;;;;;;;18.23;11.00;;;3.00;99.90;;;;;;5072706;28;20224;-87
2020/12/02 07:39:54;;;;;;;19.13;10.52;;;3.00;99.90;;;;;;5071472;28;20241;-86
2020/12/02 07:42:22;;;;;;;14.35;9.93;;;3.10;99.90;;;;;;5072274;28;20325;-86
2020/12/02 07:45:02;;;;;;;18.45;10.48;;;3.10;99.90;;;;;;5071497;28;20205;-86
2020/12/02 07:47:29;;;;;;;15.20;10.40;;;3.00;99.90;;;;;;5072530;28;20726;-86
2020/12/02 07:50:02;;;;;;;21.45;11.00;;;3.10;99.90;;;;;;5072348;28;20290;-85
2020/12/02 07:52:36;;;;;;;13.23;9.90;;;3.10;99.90;;;;;;5072430;28;20213;-86
2020/12/02 07:55:05;;;;;;;19.33;10.25;;;3.20;99.90;;;;;;5072242;28;20229;-88
2020/12/02 07:57:34;;;;;;;15.75;9.10;;;3.20;99.90;;;;;;5074053;28;20258;-86
2020/12/02 08:00:25;;;;;;;15.80;10.07;;;3.20;99.90;;;;;;5075207;28;20296;-86
2020/12/02 08:02:53;;;;;;;24.52;12.95;;;3.20;99.90;;;;;;5076314;28;20284;-87
2020/12/02 08:05:35;;;;;;;22.98;11.07;;;3.20;99.90;;;;;;5075321;28;20205;-84
2020/12/02 08:08:10;;;;;;;19.60;11.38;;;3.20;99.90;;;;;;5076225;28;20603;-92
2020/12/02 08:13:55;;;;;;;19.10;12.57;;;3.20;99.90;;;;;;5092769;22;20260;-89
2020/12/02 08:16:25;;;;;;;16.67;9.43;;;3.20;99.90;;;;;;5075060;28;20210;-87
2020/12/02 08:18:54;;;;;;;18.80;10.18;;;3.20;99.90;;;;;;5077996;28;20201;-91
2020/12/02 08:21:24;;;;;;;16.00;10.45;;;3.30;99.90;;;;;;5081033;28;20632;-90
2020/12/02 08:24:06;;;;;;;23.33;12.40;;;3.30;99.90;;;;;;5075098;28;20612;-88
2020/12/02 08:26:33;;;;;;;16.77;10.23;;;3.30;99.90;;;;;;5075681;28;20621;-89
2020/12/02 08:29:07;;;;;;;17.92;11.43;;;3.30;99.90;;;;;;5075395;28;20256;-87
2020/12/02 08:31:35;;;;;;;18.00;10.95;;;3.30;99.90;;;;;;5074372;28;20201;-86
2020/12/02 08:34:17;;;;;;;16.92;11.23;;;3.30;99.90;;;;;;5067901;28;20731;-86
2020/12/02 08:36:46;;;;;;;18.77;9.77;;;3.40;99.90;;;;;;5055320;28;20246;-85
2020/12/02 08:39:27;;;;;;;19.40;10.98;;;3.40;99.90;;;;;;5055161;28;20237;-83
2020/12/02 08:42:00;;;;;;;13.55;8.85;;;3.40;99.90;;;;;;5063044;28;20284;-84
2020/12/02 08:44:28;;;;;;;17.60;10.13;;;3.40;99.90;;;;;;5077659;28;20227;-83
2020/12/02 08:46:58;;;;;;;16.80;11.05;;;3.40;99.90;;;;;;5075351;28;20284;-86
2020/12/02 08:49:29;;;;;;;16.15;9.57;;;3.40;99.90;;;;;;5075274;28;20225;-87
2020/12/02 08:51:55;;;;;;;19.90;11.13;;;3.40;99.90;;;;;;5074799;28;20248;-85
2020/12/02 08:54:23;;;;;;;12.93;7.50;;;3.40;99.90;;;;;;5075253;28;20276;-88
2020/12/02 08:56:51;;;;;;;16.35;8.60;;;3.40;99.90;;;;;;5075359;28;20202;-90
2020/12/02 08:59:18;;;;;;;18.20;10.68;;;3.40;99.90;;;;;;5075159;28;20206;-88
2020/12/02 09:01:46;;;;;;;21.70;11.25;;;3.40;99.90;;;;;;5074043;28;20247;-88
2020/12/02 09:04:12;;;;;;;17.05;9.73;;;3.40;99.90;;;;;;5075299;28;20206;-88
2020/12/02 09:06:38;;;;;;;17.83;9.73;;;3.40;99.90;;;;;;5077570;28;20284;-89
2020/12/02 09:09:05;;;;;;;21.60;11.02;;;3.40;99.90;;;;;;5074616;28;20225;-89
2020/12/02 09:11:33;;;;;;;14.63;9.48;;;3.40;99.90;;;;;;5073759;28;20233;-88
2020/12/02 09:14:01;;;;;;;18.20;10.40;;;3.40;99.90;;;;;;5075071;28;20225;-89
2020/12/02 09:16:32;;;;;;;17.55;9.30;;;3.40;99.90;;;;;;5073625;28;20271;-89
2020/12/02 09:19:01;;;;;;;15.45;8.80;;;3.40;99.90;;;;;;5074778;28;20202;-88
2020/12/02 09:21:29;;;;;;;20.77;9.32;;;3.30;99.90;;;;;;5076359;28;20209;-90
2020/12/02 09:23:58;;;;;;;20.80;11.77;;;3.40;99.90;;;;;;5073983;28;20229;-90
2020/12/02 09:26:26;;;;;;;19.38;11.82;;;3.40;99.90;;;;;;5074389;28;20518;-88
2020/12/02 09:28:53;;;;;;;16.83;10.18;;;3.40;99.90;;;;;;5074248;28;20312;-90
2020/12/02 09:31:22;;;;;;;21.55;12.50;;;3.50;99.90;;;;;;5070119;28;20523;-89
2020/12/02 09:33:49;;;;;;;26.13;13.50;;;3.40;99.90;;;;;;5073643;28;20284;-90
2020/12/02 09:36:18;;;;;;;17.67;11.50;;;3.40;99.90;;;;;;5074327;28;20237;-90
2020/12/02 09:38:46;;;;;;;22.55;11.68;;;3.60;99.90;;;;;;5074781;28;20263;-84
2020/12/02 09:41:33;;;;;;;20.42;13.20;;;3.80;99.90;;;;;;5073965;28;20233;-84
2020/12/02 09:44:35;;;;;;;15.98;10.73;;;3.80;99.90;;;;;;5069744;28;20265;-84
2020/12/02 09:47:04;;;;;;;21.75;12.27;;;3.80;99.90;;;;;;5066425;28;20625;-83
2020/12/02 09:49:32;;;;;;;22.20;12.90;;;3.70;99.90;;;;;;5073462;28;21013;-84
2020/12/02 09:52:37;;;;;;;17.05;9.73;;;3.60;99.90;;;;;;5073839;28;20206;-84
2020/12/02 09:55:10;;;;;;;19.65;10.15;;;3.70;99.90;;;;;;5073782;28;20288;-84
2020/12/02 09:57:37;;;;;;;16.67;9.07;;;3.80;99.90;;;;;;5073993;28;20689;-85
2020/12/02 10:00:06;;;;;;;17.77;8.82;;;3.80;99.90;;;;;;5076037;28;20243;-83
2020/12/02 10:03:07;;;;;;;17.10;9.88;;;3.90;99.90;;;;;;5092854;28;20202;-85
2020/12/02 10:05:46;;;;;;;16.00;9.50;;;3.90;99.90;;;;;;5091404;28;20237;-84
2020/12/02 10:08:23;;;;;;;15.82;8.70;;;3.90;99.90;;;;;;5090226;28;20197;-84
2020/12/02 10:10:58;;;;;;;16.05;8.50;;;3.80;99.90;;;;;;5081262;28;20241;-84
2020/12/02 10:13:48;;;;;;;10.20;7.85;;;3.90;99.90;;;;;;5073916;28;20324;-85
2020/12/02 10:16:22;;;;;;;15.80;9.35;;;3.70;99.90;;;;;;5072622;28;20280;-85
2020/12/02 10:19:11;;;;;;;16.02;10.13;;;3.60;99.90;;;;;;5073881;28;20288;-83
2020/12/02 10:22:10;;;;;;;20.45;10.88;;;3.60;99.90;;;;;;5072886;28;20312;-83
2020/12/02 10:24:55;;;;;;;15.05;8.63;;;3.60;99.90;;;;;;5073334;28;20296;-84
2020/12/02 10:27:37;;;;;;;15.82;9.20;;;3.70;99.90;;;;;;5073310;28;20205;-83
2020/12/02 10:30:16;;;;;;;18.90;10.20;;;3.90;99.90;;;;;;5071853;28;20325;-83
2020/12/02 10:33:05;;;;;;;14.88;9.73;;;3.90;99.90;;;;;;5072147;28;20595;-83
2020/12/02 10:35:36;;;;;;;19.92;12.15;;;3.80;99.90;;;;;;5069151;28;20217;-83
2020/12/02 10:38:08;;;;;;;16.15;10.18;;;3.70;99.90;;;;;;5072717;28;20229;-84
2020/12/02 10:40:40;;;;;;;17.38;10.00;;;3.80;99.90;;;;;;5072607;28;20232;-82
2020/12/02 10:43:17;;;;;;;20.08;9.60;;;3.90;99.90;;;;;;5071623;28;20259;-83
2020/12/02 10:45:47;;;;;;;17.23;9.32;;;3.70;99.90;;;;;;5071447;28;20679;-84
2020/12/02 10:48:33;;;;;;;16.13;9.95;;;3.70;99.90;;;;;;5072888;28;20255;-85
2020/12/02 10:51:01;;;;;;;17.90;11.10;;;3.70;99.90;;;;;;5072846;28;20291;-85
2020/12/02 10:53:27;;;;;;;15.40;9.00;;;3.70;99.90;;;;;;5076505;28;20224;-84
2020/12/02 10:55:54;;;;;;;14.27;8.80;;;3.70;99.90;;;;;;5094714;28;20194;-83
2020/12/02 10:58:24;;;;;;;21.45;11.80;;;3.80;99.90;;;;;;5091301;28;20209;-85
2020/12/02 11:00:52;;;;;;;20.00;10.65;;;3.80;99.90;;;;;;5083868;28;20304;-88
2020/12/02 11:03:23;;;;;;;18.17;10.57;;;3.70;99.90;;;;;;5073206;28;20237;-86
2020/12/02 11:06:22;;;;;;;21.27;9.75;;;3.70;99.90;;;;;;5053302;28;20226;-86
2020/12/02 11:09:03;;;;;;;16.38;10.88;;;3.80;99.90;;;;;;5052601;28;20226;-87
2020/12/02 11:11:48;;;;;;;22.95;10.70;;;3.80;99.90;;;;;;5059591;28;20225;-88
2020/12/02 11:14:27;;;;;;;20.52;10.77;;;3.80;99.90;;;;;;5072410;28;20255;-87
2020/12/02 11:17:03;;;;;;;17.10;8.57;;;3.90;99.90;;;;;;5072685;28;20231;-87
2020/12/02 11:19:51;;;;;;;23.13;10.50;;;4.00;99.90;;;;;;5072497;28;20647;-87
2020/12/02 11:22:49;;;;;;;18.38;10.10;;;3.90;99.90;;;;;;5071560;28;20283;-87
2020/12/02 11:25:24;;;;;;;24.52;11.18;;;3.80;99.90;;;;;;5072853;28;20332;-87
2020/12/02 11:27:51;;;;;;;12.80;7.57;;;3.80;99.90;;;;;;5072314;28;20293;-88
2020/12/02 11:30:23;;;;;;;18.45;11.60;;;3.70;99.90;;;;;;5071293;28;20772;-87
2020/12/02 11:33:14;;;;;;;19.80;10.77;;;3.70;99.90;;;;;;5074826;28;20236;-88
2020/12/02 11:35:57;;;;;;;19.30;10.80;;;3.70;99.90;;;;;;5075818;28;20292;-87
2020/12/02 11:38:28;;;;;;;22.20;11.95;;;3.50;99.90;;;;;;5076200;28;20212;-86
2020/12/02 11:41:07;;;;;;;22.67;11.20;;;3.50;99.90;;;;;;5079510;28;20284;-84
2020/12/02 11:43:40;;;;;;;17.92;9.60;;;3.50;99.90;;;;;;5069104;28;20201;-87
2020/12/02 11:46:12;;;;;;;17.60;10.43;;;3.50;99.90;;;;;;5074156;28;20643;-87
2020/12/02 11:48:42;;;;;;;22.85;10.90;;;3.50;99.90;;;;;;5076478;28;20684;-86
2020/12/02 11:51:20;;;;;;;21.05;10.10;;;3.60;99.90;;;;;;5076489;28;20243;-86
2020/12/02 11:53:49;;;;;;;25.17;10.98;;;3.60;99.90;;;;;;5076350;28;20283;-85
2020/12/02 11:56:20;;;;;;;21.73;10.57;;;3.50;99.90;;;;;;5075683;28;20217;-83
2020/12/02 11:58:56;;;;;;;19.83;10.90;;;3.50;99.90;;;;;;5076184;28;20209;-88
2020/12/02 12:01:34;;;;;;;20.65;10.80;;;3.40;99.90;;;;;;5074987;28;20288;-86
2020/12/02 12:04:13;;;;;;;23.50;11.05;;;3.40;99.90;;;;;;5074936;28;20240;-84
2020/12/02 12:06:39;;;;;;;22.15;11.90;;;3.40;99.90;;;;;;5076806;28;20248;-85
2020/12/02 12:09:13;;;;;;;25.48;12.25;;;3.40;99.90;;;;;;5075991;28;20316;-86
2020/12/02 12:11:40;;;;;;;17.90;9.88;;;3.50;99.90;;;;;;5075893;28;20229;-88
2020/12/02 12:14:16;;;;;;;22.08;11.95;;;3.30;99.90;;;;;;5075188;28;20205;-86
2020/12/02 12:16:56;;;;;;;25.40;10.90;;;3.30;99.90;;;;;;5074595;28;20296;-89
2020/12/02 12:19:33;;;;;;;23.70;12.63;;;3.30;99.90;;;;;;5075013;28;20286;-85
2020/12/02 12:22:18;;;;;;;22.20;11.98;;;3.30;99.90;;;;;;5075630;28;20626;-86
2020/12/02 12:24:47;;;;;;;40.70;14.43;;;3.30;99.90;;;;;;5074839;28;20623;-85
2020/12/02 12:27:15;;;;;;;23.98;11.65;;;3.40;99.90;;;;;;5075393;28;20284;-85
2020/12/02 12:29:42;;;;;;;19.48;10.85;;;3.40;99.90;;;;;;5074158;28;20675;-85
2020/12/02 12:32:14;;;;;;;45.30;15.10;;;3.30;99.90;;;;;;5074830;28;20243;-85
2020/12/02 12:34:47;;;;;;;22.13;11.60;;;3.30;99.90;;;;;;5075323;28;20296;-85
2020/12/02 12:37:20;;;;;;;19.67;10.93;;;3.30;99.90;;;;;;5075369;28;20266;-86
2020/12/02 12:39:51;;;;;;;21.45;10.00;;;3.30;99.90;;;;;;5075419;28;20617;-86
2020/12/02 12:42:22;;;;;;;20.88;10.95;;;3.20;99.90;;;;;;5075120;28;20690;-85
2020/12/02 12:44:49;;;;;;;24.50;14.80;;;3.30;99.90;;;;;;5072753;28;20237;-84
2020/12/02 12:47:24;;;;;;;20.30;11.25;;;3.50;99.90;;;;;;5075389;28;20255;-85
2020/12/02 12:49:52;;;;;;;21.02;11.25;;;3.40;99.90;;;;;;5076858;28;20319;-84
2020/12/02 12:52:21;;;;;;;16.63;9.60;;;3.40;99.90;;;;;;5075497;28;20229;-85
2020/12/02 12:54:47;;;;;;;22.15;10.50;;;3.30;99.90;;;;;;5074095;28;20255;-85
2020/12/02 12:57:17;;;;;;;18.45;10.25;;;3.50;99.90;;;;;;5076440;28;20252;-85
2020/12/02 12:59:43;;;;;;;20.48;11.18;;;3.40;99.90;;;;;;5072939;28;21121;-86
2020/12/02 13:02:19;;;;;;;17.00;9.73;;;3.30;99.90;;;;;;5074303;28;20297;-85
2020/12/02 13:04:45;;;;;;;16.80;9.02;;;3.30;99.90;;;;;;5073959;28;20292;-85
2020/12/02 13:07:19;;;;;;;20.35;10.52;;;3.20;99.90;;;;;;5074835;28;20906;-86